Terminal Aerodrome Forecast
Issued by NWS

Home | Current Version | Previous Version | Graphics & Text | Print | Product List | Glossary On
Versions: 1 2 3 4 5 6 7 8 9 10 11 12 13 14 15 16
000
FTUS43 KICT 032338
TAFSLN
TAF
KSLN 032338Z 0400/0424 36015G22KT P6SM BKN110
     FM040600 01016G23KT P6SM OVC035
     FM040900 01016G23KT 4SM -SN OVC025
     FM041700 01013KT P6SM SCT025 BKN100=

USA.gov is the U.S. government's official web portal to all federal, state and local government web resources and services.